createdAt,value
2023-01-23T00:00:20.636Z,25.95
2023-01-23T00:05:26.173Z,24.95
2023-01-23T00:10:29.916Z,25.20
2023-01-23T00:15:34.048Z,24.85
2023-01-23T00:20:40.171Z,23.35
2023-01-23T00:25:43.879Z,24.80
2023-01-23T00:30:47.686Z,23.50
2023-01-23T00:35:56.678Z,25.23
2023-01-23T00:41:00.431Z,23.40
2023-01-23T00:46:04.278Z,23.67
2023-01-23T00:51:10.932Z,25.50
2023-01-23T00:56:14.728Z,22.48
2023-01-23T01:01:22.651Z,25.30
2023-01-23T01:11:33.788Z,16.70
2023-01-23T01:16:37.713Z,24.83
2023-01-23T01:21:43.577Z,24.10
2023-01-23T01:26:48.425Z,24.58
2023-01-23T01:31:52.280Z,23.10
2023-01-23T01:36:57.589Z,23.50
2023-01-23T01:42:01.358Z,25.55
2023-01-23T01:47:05.184Z,24.80
2023-01-23T01:52:13.043Z,23.10
2023-01-23T01:57:21.835Z,25.08
2023-01-23T02:02:36.278Z,25.98
2023-01-23T02:07:45.519Z,25.20
2023-01-23T02:12:51.456Z,23.40
2023-01-23T02:17:55.945Z,24.83
2023-01-23T02:23:10.787Z,24.02
2023-01-23T02:28:18.096Z,23.33
2023-01-23T02:33:45.331Z,25.23
2023-01-23T02:39:05.197Z,24.00
2023-01-23T02:44:17.368Z,24.70
2023-01-23T02:49:23.017Z,24.02
2023-01-23T02:54:27.392Z,23.73
2023-01-23T02:59:50.687Z,23.25
2023-01-23T03:04:55.310Z,23.85
2023-01-23T03:09:59.013Z,25.65
2023-01-23T03:15:06.100Z,23.48
2023-01-23T03:20:12.576Z,25.15
2023-01-23T03:25:16.974Z,25.25
2023-01-23T03:30:22.642Z,26.58
2023-01-23T03:35:28.010Z,24.70
2023-01-23T03:40:49.775Z,25.67
2023-01-23T03:45:57.686Z,25.42
2023-01-23T03:51:02.127Z,24.52
2023-01-23T03:56:09.449Z,25.30
2023-01-23T04:01:14.959Z,27.30
2023-01-23T04:06:19.633Z,26.37
2023-01-23T04:11:24.149Z,26.87
2023-01-23T04:16:29.431Z,26.58
2023-01-23T04:21:35.320Z,26.25
2023-01-23T04:26:39.232Z,27.60
2023-01-23T04:31:45.363Z,27.80
2023-01-23T04:36:49.534Z,26.62
2023-01-23T04:41:53.641Z,26.30
2023-01-23T04:47:01.225Z,25.48
2023-01-23T04:52:05.692Z,26.80
2023-01-23T04:57:10.651Z,28.60
2023-01-23T05:02:15.811Z,28.08
2023-01-23T05:07:19.847Z,26.60
2023-01-23T05:12:25.689Z,27.62
2023-01-23T05:17:31.059Z,27.77
2023-01-23T05:22:35.528Z,28.62
2023-01-23T05:27:39.302Z,29.85
2023-01-23T05:32:44.489Z,28.30
2023-01-23T05:37:51.630Z,30.05
2023-01-23T05:42:56.789Z,30.75
2023-01-23T05:48:03.568Z,28.35
2023-01-23T05:53:07.873Z,30.42
2023-01-23T05:58:14.475Z,31.17
2023-01-23T06:03:22.661Z,28.20
2023-01-23T06:08:27.450Z,30.60
2023-01-23T06:13:31.289Z,29.65
2023-01-23T06:18:36.686Z,30.40
2023-01-23T06:23:40.705Z,30.50
2023-01-23T06:28:46.113Z,29.50
2023-01-23T06:33:52.779Z,28.55
2023-01-23T06:38:57.737Z,30.92
2023-01-23T06:44:02.089Z,27.60
2023-01-23T06:49:07.736Z,30.50
2023-01-23T06:54:12.155Z,29.48
2023-01-23T06:59:16.655Z,31.58
2023-01-23T07:04:21.912Z,29.37
2023-01-23T07:09:26.532Z,31.55
2023-01-23T07:14:31.166Z,31.77
2023-01-23T07:19:36.526Z,29.35
2023-01-23T07:24:40.682Z,30.60
2023-01-23T07:29:44.855Z,30.20
2023-01-23T07:34:49.906Z,30.90
2023-01-23T07:39:53.635Z,29.08
2023-01-23T07:44:57.327Z,29.10
2023-01-23T07:50:02.412Z,30.70
2023-01-23T07:55:07.460Z,29.48
2023-01-23T08:00:12.212Z,30.12
2023-01-23T08:05:17.457Z,29.75
2023-01-23T08:10:21.643Z,30.05
2023-01-23T08:15:25.759Z,30.33
2023-01-23T08:20:30.903Z,31.00
2023-01-23T08:25:35.003Z,30.00
2023-01-23T08:30:38.877Z,29.80
2023-01-23T08:35:51.055Z,30.58
2023-01-23T08:40:56.224Z,28.15
2023-01-23T08:46:01.021Z,30.95
2023-01-23T08:51:09.460Z,27.30
2023-01-23T08:56:17.001Z,28.40
2023-01-23T09:01:22.489Z,28.95
2023-01-23T09:06:27.548Z,30.23
2023-01-23T09:11:31.295Z,29.73
2023-01-23T09:16:35.062Z,30.40
2023-01-23T09:21:40.169Z,28.10
2023-01-23T09:26:43.906Z,28.75
2023-01-23T09:31:47.775Z,30.37
2023-01-23T09:36:53.496Z,29.10
2023-01-23T09:41:57.244Z,30.75
2023-01-23T09:47:07.152Z,28.30
2023-01-23T09:52:17.438Z,29.98
2023-01-23T09:57:25.778Z,29.17
2023-01-23T10:02:30.158Z,28.40
2023-01-23T10:07:46.673Z,27.05
2023-01-23T10:13:03.783Z,27.80
2023-01-23T10:18:20.393Z,27.50
2023-01-23T10:23:41.097Z,26.23
2023-01-23T10:28:45.059Z,26.50
2023-01-23T10:33:55.608Z,24.42
2023-01-23T10:39:05.269Z,25.30
2023-01-23T10:44:15.959Z,25.20
2023-01-23T10:49:30.420Z,24.48
2023-01-23T10:54:47.041Z,25.12
2023-01-23T10:59:56.792Z,23.52
2023-01-23T11:05:01.249Z,22.00
2023-01-23T11:10:21.661Z,23.42
2023-01-23T11:15:27.643Z,23.40
2023-01-23T11:20:34.303Z,24.08
2023-01-23T11:25:40.900Z,23.25
2023-01-23T11:30:48.765Z,23.48
2023-01-23T11:36:02.348Z,21.83
2023-01-23T11:41:12.087Z,22.00
2023-01-23T11:46:30.873Z,23.83
2023-01-23T11:51:39.062Z,21.27
2023-01-23T12:02:30.543Z,21.73
2023-01-23T12:07:41.938Z,22.33
2023-01-23T12:13:02.593Z,21.98
2023-01-23T12:18:21.665Z,22.35
2023-01-23T12:23:41.930Z,20.08
2023-01-23T12:29:28.669Z,21.37
2023-01-23T12:34:46.867Z,21.80
2023-01-23T12:40:08.435Z,19.77
2023-01-23T12:45:21.690Z,21.08
2023-01-23T12:50:36.028Z,20.55
2023-01-23T12:55:44.354Z,21.15
2023-01-23T13:06:14.931Z,19.27
2023-01-23T13:11:41.627Z,19.75
2023-01-23T13:16:49.566Z,19.90
2023-01-23T13:22:19.023Z,19.52
2023-01-23T13:27:41.583Z,20.10
2023-01-23T13:32:46.782Z,19.80
2023-01-23T13:37:52.166Z,20.62
2023-01-23T13:42:55.890Z,20.83
2023-01-23T14:21:42.646Z,22.40
2023-01-23T14:26:50.748Z,23.30
2023-01-23T14:37:04.275Z,21.60
2023-01-23T14:42:16.517Z,21.75
2023-01-23T14:47:32.742Z,22.67
2023-01-23T14:52:39.141Z,23.33
2023-01-23T14:57:42.955Z,23.02
2023-01-23T15:02:51.006Z,23.25
2023-01-23T15:13:03.482Z,20.88
2023-01-23T15:18:22.565Z,23.05
2023-01-23T15:23:31.473Z,21.65
2023-01-23T15:28:40.153Z,24.12
2023-01-23T15:33:45.254Z,22.17
2023-01-23T15:38:50.627Z,21.70
2023-01-23T15:43:54.325Z,21.67
2023-01-23T15:48:58.072Z,23.17
2023-01-23T15:54:04.127Z,22.77
2023-01-23T15:59:14.095Z,22.55
2023-01-23T16:04:18.464Z,21.12
2023-01-23T16:09:32.480Z,21.35
2023-01-23T16:14:36.182Z,21.00
2023-01-23T16:19:40.041Z,21.98
2023-01-23T16:24:45.200Z,21.73
2023-01-23T16:29:50.192Z,19.30
2023-01-23T16:34:53.928Z,22.50
2023-01-23T16:39:59.015Z,20.10
2023-01-23T16:45:02.880Z,21.10
2023-01-23T16:50:07.637Z,21.52
2023-01-23T16:55:22.670Z,19.17
2023-01-23T17:00:34.696Z,19.08
2023-01-23T17:05:38.871Z,19.90
2023-01-23T17:10:46.574Z,20.23
2023-01-23T17:15:53.958Z,20.60
2023-01-23T17:20:58.237Z,18.80
2023-01-23T17:26:03.496Z,20.73
2023-01-23T17:31:07.884Z,20.30
2023-01-23T17:36:11.701Z,20.25
2023-01-23T17:41:17.986Z,19.40
2023-01-23T17:46:26.316Z,21.50
2023-01-23T17:51:30.089Z,20.27
2023-01-23T17:56:35.164Z,20.85
2023-01-23T18:01:39.770Z,20.15
2023-01-23T18:06:43.825Z,20.98
2023-01-23T18:11:52.433Z,19.65
2023-01-23T18:16:56.918Z,20.62
2023-01-23T18:22:01.257Z,22.48
2023-01-23T18:27:17.731Z,22.08
2023-01-23T18:32:40.816Z,21.62
2023-01-23T18:37:56.056Z,21.45
2023-01-23T18:43:12.287Z,22.52
2023-01-23T18:48:25.115Z,21.92
2023-01-23T18:53:42.010Z,20.58
2023-01-23T18:59:09.971Z,22.55
2023-01-23T19:04:16.627Z,22.65
2023-01-23T19:09:22.412Z,22.40
2023-01-23T19:14:45.504Z,22.75
2023-01-23T19:19:56.789Z,22.92
2023-01-23T19:25:01.339Z,23.23
2023-01-23T19:30:07.953Z,24.02
2023-01-23T19:35:14.267Z,22.58
2023-01-23T19:40:18.909Z,21.08
2023-01-23T19:45:24.201Z,23.48
2023-01-23T19:50:27.958Z,21.00
2023-01-23T19:55:34.087Z,21.52
2023-01-23T20:00:39.476Z,19.42
2023-01-23T20:05:43.259Z,22.20
2023-01-23T20:10:46.977Z,21.65
2023-01-23T20:15:52.094Z,20.90
2023-01-23T20:20:59.837Z,21.37
2023-01-23T20:26:03.942Z,21.95
2023-01-23T20:31:11.718Z,22.37
2023-01-23T20:36:16.110Z,21.80
2023-01-23T20:41:21.826Z,21.33
2023-01-23T20:46:27.270Z,21.55
2023-01-23T20:51:31.433Z,22.45
2023-01-23T20:56:35.620Z,22.02
2023-01-23T21:02:00.144Z,21.58
2023-01-23T21:07:04.720Z,22.67
2023-01-23T21:12:08.911Z,23.87
2023-01-23T21:17:14.334Z,21.67
2023-01-23T21:22:18.221Z,22.70
2023-01-23T21:27:24.465Z,22.80
2023-01-23T21:32:30.306Z,22.77
2023-01-23T21:37:34.214Z,24.73
2023-01-23T21:42:38.028Z,23.95
2023-01-23T21:47:43.150Z,23.67
2023-01-23T21:52:46.883Z,23.95
2023-01-23T21:57:51.022Z,23.08
2023-01-23T22:02:56.155Z,23.48
2023-01-23T22:07:59.923Z,23.42
2023-01-23T22:13:03.843Z,22.20
2023-01-23T22:18:08.941Z,23.85
2023-01-23T22:23:12.630Z,24.30
2023-01-23T22:28:16.447Z,25.60
2023-01-23T22:33:22.516Z,24.60
2023-01-23T22:38:27.625Z,24.02
2023-01-23T22:43:31.752Z,24.30
2023-01-23T22:48:38.769Z,26.02
2023-01-23T22:53:42.502Z,26.55
2023-01-23T22:58:46.974Z,26.90
2023-01-23T23:03:52.169Z,26.37
2023-01-23T23:08:56.496Z,25.70
2023-01-23T23:14:00.313Z,26.90
2023-01-23T23:19:05.828Z,25.80
2023-01-23T23:24:13.709Z,27.60
2023-01-23T23:34:22.385Z,25.40
2023-01-23T23:39:26.577Z,26.75
2023-01-23T23:44:30.301Z,26.12
2023-01-23T23:49:35.381Z,25.00
2023-01-23T23:54:39.098Z,25.20
2023-01-23T23:59:42.827Z,23.92
